sensor_id;sensor_type;location;lat;lon;timestamp;temperature;humidity
32506;DHT22;18955;51.224;8.482;2023-05-21T00:01:07;12.20;80.80
32506;DHT22;18955;51.224;8.482;2023-05-21T00:03:33;12.20;80.80
32506;DHT22;18955;51.224;8.482;2023-05-21T00:06:01;12.20;81.00
32506;DHT22;18955;51.224;8.482;2023-05-21T00:08:28;12.20;81.20
32506;DHT22;18955;51.224;8.482;2023-05-21T00:10:54;12.20;80.80
32506;DHT22;18955;51.224;8.482;2023-05-21T00:13:21;12.20;80.90
32506;DHT22;18955;51.224;8.482;2023-05-21T00:15:47;12.20;80.90
32506;DHT22;18955;51.224;8.482;2023-05-21T00:18:13;12.20;81.10
32506;DHT22;18955;51.224;8.482;2023-05-21T00:20:39;12.20;81.00
32506;DHT22;18955;51.224;8.482;2023-05-21T00:23:06;12.20;81.00
32506;DHT22;18955;51.224;8.482;2023-05-21T00:25:32;12.20;81.10
32506;DHT22;18955;51.224;8.482;2023-05-21T00:27:58;12.10;81.10
32506;DHT22;18955;51.224;8.482;2023-05-21T00:30:25;12.10;81.20
32506;DHT22;18955;51.224;8.482;2023-05-21T00:32:51;12.10;81.10
32506;DHT22;18955;51.224;8.482;2023-05-21T00:35:17;12.10;81.10
32506;DHT22;18955;51.224;8.482;2023-05-21T00:37:44;12.10;81.20
32506;DHT22;18955;51.224;8.482;2023-05-21T00:40:12;12.10;81.10
32506;DHT22;18955;51.224;8.482;2023-05-21T00:42:39;12.10;81.30
32506;DHT22;18955;51.224;8.482;2023-05-21T00:45:07;12.10;81.20
32506;DHT22;18955;51.224;8.482;2023-05-21T00:47:34;12.10;81.30
32506;DHT22;18955;51.224;8.482;2023-05-21T00:50:02;12.10;81.50
32506;DHT22;18955;51.224;8.482;2023-05-21T00:52:29;12.10;81.60
32506;DHT22;18955;51.224;8.482;2023-05-21T00:54:55;12.00;81.50
32506;DHT22;18955;51.224;8.482;2023-05-21T00:57:24;12.10;81.40
32506;DHT22;18955;51.224;8.482;2023-05-21T00:59:52;12.10;81.50
32506;DHT22;18955;51.224;8.482;2023-05-21T01:02:19;12.00;81.50
32506;DHT22;18955;51.224;8.482;2023-05-21T01:04:45;12.10;81.70
32506;DHT22;18955;51.224;8.482;2023-05-21T01:07:12;12.10;81.90
32506;DHT22;18955;51.224;8.482;2023-05-21T01:09:40;12.00;81.90
32506;DHT22;18955;51.224;8.482;2023-05-21T01:12:07;12.00;81.60
32506;DHT22;18955;51.224;8.482;2023-05-21T01:14:36;12.00;82.00
32506;DHT22;18955;51.224;8.482;2023-05-21T01:17:04;12.00;82.00
32506;DHT22;18955;51.224;8.482;2023-05-21T01:19:32;12.00;81.90
32506;DHT22;18955;51.224;8.482;2023-05-21T01:22:03;12.00;81.90
32506;DHT22;18955;51.224;8.482;2023-05-21T01:24:30;12.00;82.00
32506;DHT22;18955;51.224;8.482;2023-05-21T01:26:59;12.00;82.20
32506;DHT22;18955;51.224;8.482;2023-05-21T01:29:25;12.00;82.10
32506;DHT22;18955;51.224;8.482;2023-05-21T01:34:25;12.00;82.20
32506;DHT22;18955;51.224;8.482;2023-05-21T01:39:38;12.00;82.20
32506;DHT22;18955;51.224;8.482;2023-05-21T01:42:09;12.00;82.20
32506;DHT22;18955;51.224;8.482;2023-05-21T01:44:36;11.90;82.20
32506;DHT22;18955;51.224;8.482;2023-05-21T01:47:04;12.00;81.90
32506;DHT22;18955;51.224;8.482;2023-05-21T01:49:30;12.00;82.00
32506;DHT22;18955;51.224;8.482;2023-05-21T01:51:57;12.00;81.90
32506;DHT22;18955;51.224;8.482;2023-05-21T01:54:23;12.00;82.00
32506;DHT22;18955;51.224;8.482;2023-05-21T01:56:50;11.90;82.10
32506;DHT22;18955;51.224;8.482;2023-05-21T01:59:16;11.90;82.10
32506;DHT22;18955;51.224;8.482;2023-05-21T02:01:43;11.90;82.10
32506;DHT22;18955;51.224;8.482;2023-05-21T02:04:09;11.90;82.10
32506;DHT22;18955;51.224;8.482;2023-05-21T02:06:35;11.90;82.30
32506;DHT22;18955;51.224;8.482;2023-05-21T02:09:04;11.90;82.40
32506;DHT22;18955;51.224;8.482;2023-05-21T02:11:30;12.00;82.10
32506;DHT22;18955;51.224;8.482;2023-05-21T02:13:57;11.90;82.10
32506;DHT22;18955;51.224;8.482;2023-05-21T02:16:24;12.00;82.20
32506;DHT22;18955;51.224;8.482;2023-05-21T02:18:50;11.90;82.10
32506;DHT22;18955;51.224;8.482;2023-05-21T02:21:18;11.90;82.10
32506;DHT22;18955;51.224;8.482;2023-05-21T02:23:45;11.90;82.20
32506;DHT22;18955;51.224;8.482;2023-05-21T02:26:11;11.90;82.20
32506;DHT22;18955;51.224;8.482;2023-05-21T02:28:38;11.90;82.30
32506;DHT22;18955;51.224;8.482;2023-05-21T02:31:05;11.90;82.40
32506;DHT22;18955;51.224;8.482;2023-05-21T02:33:31;11.90;82.50
32506;DHT22;18955;51.224;8.482;2023-05-21T02:35:57;11.90;82.20
32506;DHT22;18955;51.224;8.482;2023-05-21T02:38:24;11.90;82.10
32506;DHT22;18955;51.224;8.482;2023-05-21T02:40:50;11.90;82.00
32506;DHT22;18955;51.224;8.482;2023-05-21T02:43:17;11.90;82.10
32506;DHT22;18955;51.224;8.482;2023-05-21T02:45:43;11.80;82.20
32506;DHT22;18955;51.224;8.482;2023-05-21T02:48:09;11.80;82.10
32506;DHT22;18955;51.224;8.482;2023-05-21T02:50:39;11.80;82.80
32506;DHT22;18955;51.224;8.482;2023-05-21T02:53:06;11.80;82.20
32506;DHT22;18955;51.224;8.482;2023-05-21T02:55:33;11.90;82.30
32506;DHT22;18955;51.224;8.482;2023-05-21T02:58:00;11.80;82.50
32506;DHT22;18955;51.224;8.482;2023-05-21T03:00:26;11.80;82.20
32506;DHT22;18955;51.224;8.482;2023-05-21T03:02:53;11.90;82.30
32506;DHT22;18955;51.224;8.482;2023-05-21T03:05:20;11.80;82.00
32506;DHT22;18955;51.224;8.482;2023-05-21T03:07:46;11.90;82.00
32506;DHT22;18955;51.224;8.482;2023-05-21T03:10:12;11.80;82.20
32506;DHT22;18955;51.224;8.482;2023-05-21T03:12:38;11.90;82.10
32506;DHT22;18955;51.224;8.482;2023-05-21T03:15:05;11.80;82.20
32506;DHT22;18955;51.224;8.482;2023-05-21T03:17:32;11.80;82.10
32506;DHT22;18955;51.224;8.482;2023-05-21T03:19:58;11.80;82.20
32506;DHT22;18955;51.224;8.482;2023-05-21T03:22:24;11.80;82.30
32506;DHT22;18955;51.224;8.482;2023-05-21T03:24:51;11.80;82.30
32506;DHT22;18955;51.224;8.482;2023-05-21T03:27:18;11.80;82.10
32506;DHT22;18955;51.224;8.482;2023-05-21T03:29:46;11.80;82.00
32506;DHT22;18955;51.224;8.482;2023-05-21T03:32:12;11.80;82.00
32506;DHT22;18955;51.224;8.482;2023-05-21T03:34:39;11.80;81.90
32506;DHT22;18955;51.224;8.482;2023-05-21T03:37:05;11.70;82.00
32506;DHT22;18955;51.224;8.482;2023-05-21T03:39:33;11.80;82.20
32506;DHT22;18955;51.224;8.482;2023-05-21T03:41:59;11.80;82.30
32506;DHT22;18955;51.224;8.482;2023-05-21T03:44:35;11.70;82.40
32506;DHT22;18955;51.224;8.482;2023-05-21T03:47:32;11.70;82.50
32506;DHT22;18955;51.224;8.482;2023-05-21T03:50:02;11.80;82.40
32506;DHT22;18955;51.224;8.482;2023-05-21T03:52:28;11.70;82.30
32506;DHT22;18955;51.224;8.482;2023-05-21T03:54:55;11.80;82.50
32506;DHT22;18955;51.224;8.482;2023-05-21T03:57:22;11.70;82.30
32506;DHT22;18955;51.224;8.482;2023-05-21T03:59:48;11.70;82.40
32506;DHT22;18955;51.224;8.482;2023-05-21T04:02:14;11.70;82.60
32506;DHT22;18955;51.224;8.482;2023-05-21T04:04:41;11.70;82.70
32506;DHT22;18955;51.224;8.482;2023-05-21T04:07:08;11.70;82.80
32506;DHT22;18955;51.224;8.482;2023-05-21T04:09:40;11.70;82.70
32506;DHT22;18955;51.224;8.482;2023-05-21T04:12:07;11.70;82.50
32506;DHT22;18955;51.224;8.482;2023-05-21T04:14:36;11.70;82.70
32506;DHT22;18955;51.224;8.482;2023-05-21T04:17:03;11.70;82.50
32506;DHT22;18955;51.224;8.482;2023-05-21T04:19:33;11.70;82.90
32506;DHT22;18955;51.224;8.482;2023-05-21T04:22:02;11.70;82.60
32506;DHT22;18955;51.224;8.482;2023-05-21T04:24:29;11.70;83.10
32506;DHT22;18955;51.224;8.482;2023-05-21T04:27:08;11.70;82.60
32506;DHT22;18955;51.224;8.482;2023-05-21T04:29:35;11.70;83.10
32506;DHT22;18955;51.224;8.482;2023-05-21T04:32:03;11.70;83.00
32506;DHT22;18955;51.224;8.482;2023-05-21T04:34:30;11.70;83.20
32506;DHT22;18955;51.224;8.482;2023-05-21T04:36:59;11.70;82.90
32506;DHT22;18955;51.224;8.482;2023-05-21T04:39:27;11.70;82.90
32506;DHT22;18955;51.224;8.482;2023-05-21T04:41:54;11.70;82.90
32506;DHT22;18955;51.224;8.482;2023-05-21T04:44:21;11.70;83.30
32506;DHT22;18955;51.224;8.482;2023-05-21T04:46:48;11.70;83.30
32506;DHT22;18955;51.224;8.482;2023-05-21T04:49:17;11.70;83.20
32506;DHT22;18955;51.224;8.482;2023-05-21T04:51:43;11.70;83.60
32506;DHT22;18955;51.224;8.482;2023-05-21T04:54:09;11.70;83.70
32506;DHT22;18955;51.224;8.482;2023-05-21T04:56:36;11.70;83.60
32506;DHT22;18955;51.224;8.482;2023-05-21T04:59:02;11.70;83.20
32506;DHT22;18955;51.224;8.482;2023-05-21T05:01:29;11.70;83.20
32506;DHT22;18955;51.224;8.482;2023-05-21T05:03:57;11.70;83.90
32506;DHT22;18955;51.224;8.482;2023-05-21T05:06:23;11.70;83.30
32506;DHT22;18955;51.224;8.482;2023-05-21T05:08:51;11.70;83.10
32506;DHT22;18955;51.224;8.482;2023-05-21T05:11:17;11.70;83.30
32506;DHT22;18955;51.224;8.482;2023-05-21T05:13:44;11.70;83.10
32506;DHT22;18955;51.224;8.482;2023-05-21T05:16:10;11.70;83.30
32506;DHT22;18955;51.224;8.482;2023-05-21T05:18:40;11.70;83.20
32506;DHT22;18955;51.224;8.482;2023-05-21T05:21:06;11.70;83.30
32506;DHT22;18955;51.224;8.482;2023-05-21T05:23:33;11.70;83.30
32506;DHT22;18955;51.224;8.482;2023-05-21T05:25:59;11.70;83.60
32506;DHT22;18955;51.224;8.482;2023-05-21T05:28:26;11.70;83.50
32506;DHT22;18955;51.224;8.482;2023-05-21T05:30:53;11.70;83.60
32506;DHT22;18955;51.224;8.482;2023-05-21T05:33:24;11.80;83.70
32506;DHT22;18955;51.224;8.482;2023-05-21T05:35:51;11.70;83.90
32506;DHT22;18955;51.224;8.482;2023-05-21T05:38:17;11.70;83.90
32506;DHT22;18955;51.224;8.482;2023-05-21T05:40:44;11.70;84.70
32506;DHT22;18955;51.224;8.482;2023-05-21T05:43:10;11.70;84.40
32506;DHT22;18955;51.224;8.482;2023-05-21T05:45:37;11.70;83.80
32506;DHT22;18955;51.224;8.482;2023-05-21T05:48:09;11.70;85.20
32506;DHT22;18955;51.224;8.482;2023-05-21T05:50:35;11.80;84.00
32506;DHT22;18955;51.224;8.482;2023-05-21T05:53:02;11.80;83.70
32506;DHT22;18955;51.224;8.482;2023-05-21T05:55:28;11.80;83.90
32506;DHT22;18955;51.224;8.482;2023-05-21T05:57:55;11.80;84.20
32506;DHT22;18955;51.224;8.482;2023-05-21T06:00:21;11.80;83.80
32506;DHT22;18955;51.224;8.482;2023-05-21T06:02:49;11.80;83.80
32506;DHT22;18955;51.224;8.482;2023-05-21T06:05:16;11.80;83.70
32506;DHT22;18955;51.224;8.482;2023-05-21T06:07:42;11.80;83.50
32506;DHT22;18955;51.224;8.482;2023-05-21T06:10:08;11.80;83.40
32506;DHT22;18955;51.224;8.482;2023-05-21T06:12:35;11.80;83.40
32506;DHT22;18955;51.224;8.482;2023-05-21T06:15:01;11.80;84.10
32506;DHT22;18955;51.224;8.482;2023-05-21T06:17:28;11.90;83.70
32506;DHT22;18955;51.224;8.482;2023-05-21T06:19:55;11.90;84.00
32506;DHT22;18955;51.224;8.482;2023-05-21T06:22:21;11.90;83.80
32506;DHT22;18955;51.224;8.482;2023-05-21T06:24:48;11.90;83.80
32506;DHT22;18955;51.224;8.482;2023-05-21T06:27:15;11.90;83.80
32506;DHT22;18955;51.224;8.482;2023-05-21T06:29:42;11.90;83.70
32506;DHT22;18955;51.224;8.482;2023-05-21T06:32:08;11.90;83.70
32506;DHT22;18955;51.224;8.482;2023-05-21T06:34:35;11.90;83.70
32506;DHT22;18955;51.224;8.482;2023-05-21T06:37:01;11.90;83.70
32506;DHT22;18955;51.224;8.482;2023-05-21T06:39:28;11.90;83.80
32506;DHT22;18955;51.224;8.482;2023-05-21T06:41:54;12.00;83.90
32506;DHT22;18955;51.224;8.482;2023-05-21T06:44:41;12.00;84.10
32506;DHT22;18955;51.224;8.482;2023-05-21T06:47:15;12.00;84.70
32506;DHT22;18955;51.224;8.482;2023-05-21T06:49:42;12.00;84.20
32506;DHT22;18955;51.224;8.482;2023-05-21T06:52:09;12.00;84.10
32506;DHT22;18955;51.224;8.482;2023-05-21T06:54:36;12.00;84.20
32506;DHT22;18955;51.224;8.482;2023-05-21T06:57:02;12.00;84.10
32506;DHT22;18955;51.224;8.482;2023-05-21T06:59:30;12.00;84.10
32506;DHT22;18955;51.224;8.482;2023-05-21T07:01:57;12.10;84.20
32506;DHT22;18955;51.224;8.482;2023-05-21T07:04:23;12.10;84.20
32506;DHT22;18955;51.224;8.482;2023-05-21T07:06:49;12.10;84.10
32506;DHT22;18955;51.224;8.482;2023-05-21T07:09:17;12.10;84.10
32506;DHT22;18955;51.224;8.482;2023-05-21T07:11:44;12.20;84.20
32506;DHT22;18955;51.224;8.482;2023-05-21T07:14:14;12.20;84.20
32506;DHT22;18955;51.224;8.482;2023-05-21T07:16:40;12.20;84.20
32506;DHT22;18955;51.224;8.482;2023-05-21T07:19:07;12.20;84.10
32506;DHT22;18955;51.224;8.482;2023-05-21T07:21:33;12.20;84.10
32506;DHT22;18955;51.224;8.482;2023-05-21T07:24:00;12.30;84.00
32506;DHT22;18955;51.224;8.482;2023-05-21T07:26:26;12.30;83.90
32506;DHT22;18955;51.224;8.482;2023-05-21T07:28:53;12.30;83.80
32506;DHT22;18955;51.224;8.482;2023-05-21T07:31:19;12.40;83.80
32506;DHT22;18955;51.224;8.482;2023-05-21T07:33:49;12.40;83.80
32506;DHT22;18955;51.224;8.482;2023-05-21T07:36:17;12.40;83.80
32506;DHT22;18955;51.224;8.482;2023-05-21T07:38:44;12.50;83.80
32506;DHT22;18955;51.224;8.482;2023-05-21T07:41:12;12.50;83.70
32506;DHT22;18955;51.224;8.482;2023-05-21T07:43:39;12.50;83.80
32506;DHT22;18955;51.224;8.482;2023-05-21T07:46:05;12.50;83.80
32506;DHT22;18955;51.224;8.482;2023-05-21T07:48:31;12.60;83.90
32506;DHT22;18955;51.224;8.482;2023-05-21T07:51:00;12.50;83.70
32506;DHT22;18955;51.224;8.482;2023-05-21T07:53:27;12.60;83.70
32506;DHT22;18955;51.224;8.482;2023-05-21T07:55:59;12.60;83.70
32506;DHT22;18955;51.224;8.482;2023-05-21T07:58:28;12.60;83.50
32506;DHT22;18955;51.224;8.482;2023-05-21T08:00:57;12.70;83.50
32506;DHT22;18955;51.224;8.482;2023-05-21T08:03:26;12.70;83.60
32506;DHT22;18955;51.224;8.482;2023-05-21T08:05:56;12.70;83.50
32506;DHT22;18955;51.224;8.482;2023-05-21T08:08:24;12.70;83.60
32506;DHT22;18955;51.224;8.482;2023-05-21T08:10:52;12.80;83.60
32506;DHT22;18955;51.224;8.482;2023-05-21T08:13:20;12.80;83.60
32506;DHT22;18955;51.224;8.482;2023-05-21T08:15:48;12.80;83.60
32506;DHT22;18955;51.224;8.482;2023-05-21T08:18:14;12.80;83.50
32506;DHT22;18955;51.224;8.482;2023-05-21T08:20:44;12.90;83.60
32506;DHT22;18955;51.224;8.482;2023-05-21T08:23:11;12.90;83.50
32506;DHT22;18955;51.224;8.482;2023-05-21T08:25:44;12.90;83.50
32506;DHT22;18955;51.224;8.482;2023-05-21T08:28:11;12.90;83.40
32506;DHT22;18955;51.224;8.482;2023-05-21T08:30:37;13.00;83.50
32506;DHT22;18955;51.224;8.482;2023-05-21T08:33:04;13.00;83.40
32506;DHT22;18955;51.224;8.482;2023-05-21T08:35:32;13.00;83.40
32506;DHT22;18955;51.224;8.482;2023-05-21T08:38:10;13.00;83.40
32506;DHT22;18955;51.224;8.482;2023-05-21T08:40:53;13.10;83.30
32506;DHT22;18955;51.224;8.482;2023-05-21T08:43:20;13.10;83.30
32506;DHT22;18955;51.224;8.482;2023-05-21T08:45:52;13.10;83.20
32506;DHT22;18955;51.224;8.482;2023-05-21T08:48:26;13.20;83.30
32506;DHT22;18955;51.224;8.482;2023-05-21T08:50:53;13.20;83.30
32506;DHT22;18955;51.224;8.482;2023-05-21T08:53:24;13.20;83.30
32506;DHT22;18955;51.224;8.482;2023-05-21T08:55:55;13.20;83.30
32506;DHT22;18955;51.224;8.482;2023-05-21T08:58:27;13.30;83.40
32506;DHT22;18955;51.224;8.482;2023-05-21T09:00:54;13.30;83.40
32506;DHT22;18955;51.224;8.482;2023-05-21T09:03:23;13.30;83.40
32506;DHT22;18955;51.224;8.482;2023-05-21T09:05:49;13.40;83.20
32506;DHT22;18955;51.224;8.482;2023-05-21T09:08:34;13.40;83.30
32506;DHT22;18955;51.224;8.482;2023-05-21T09:11:21;13.40;83.30
32506;DHT22;18955;51.224;8.482;2023-05-21T09:13:54;13.50;83.30
32506;DHT22;18955;51.224;8.482;2023-05-21T09:16:28;13.50;83.30
32506;DHT22;18955;51.224;8.482;2023-05-21T09:18:54;13.50;83.30
32506;DHT22;18955;51.224;8.482;2023-05-21T09:21:29;13.60;83.30
32506;DHT22;18955;51.224;8.482;2023-05-21T09:24:13;13.60;83.30
32506;DHT22;18955;51.224;8.482;2023-05-21T09:26:43;13.60;83.30
32506;DHT22;18955;51.224;8.482;2023-05-21T09:29:12;13.70;83.30
32506;DHT22;18955;51.224;8.482;2023-05-21T09:31:49;13.70;83.20
32506;DHT22;18955;51.224;8.482;2023-05-21T09:34:16;13.70;83.70
32506;DHT22;18955;51.224;8.482;2023-05-21T09:36:44;13.80;83.30
32506;DHT22;18955;51.224;8.482;2023-05-21T09:39:26;13.80;83.30
32506;DHT22;18955;51.224;8.482;2023-05-21T09:41:56;13.90;83.40
32506;DHT22;18955;51.224;8.482;2023-05-21T09:44:22;13.90;84.00
32506;DHT22;18955;51.224;8.482;2023-05-21T09:46:49;13.90;84.10
32506;DHT22;18955;51.224;8.482;2023-05-21T09:49:23;13.90;83.50
32506;DHT22;18955;51.224;8.482;2023-05-21T09:51:54;14.00;83.40
32506;DHT22;18955;51.224;8.482;2023-05-21T09:54:22;14.00;83.40
32506;DHT22;18955;51.224;8.482;2023-05-21T09:56:50;14.10;83.30
32506;DHT22;18955;51.224;8.482;2023-05-21T09:59:19;14.10;83.30
32506;DHT22;18955;51.224;8.482;2023-05-21T10:01:45;14.20;83.80
32506;DHT22;18955;51.224;8.482;2023-05-21T10:04:12;14.20;83.30
32506;DHT22;18955;51.224;8.482;2023-05-21T10:06:42;14.20;83.30
32506;DHT22;18955;51.224;8.482;2023-05-21T10:09:09;14.20;83.30
32506;DHT22;18955;51.224;8.482;2023-05-21T10:11:36;14.20;83.40
32506;DHT22;18955;51.224;8.482;2023-05-21T10:14:12;14.30;83.50
32506;DHT22;18955;51.224;8.482;2023-05-21T10:16:39;14.30;83.50
32506;DHT22;18955;51.224;8.482;2023-05-21T10:19:06;14.40;83.50
32506;DHT22;18955;51.224;8.482;2023-05-21T10:21:35;14.40;83.50
32506;DHT22;18955;51.224;8.482;2023-05-21T10:24:02;14.40;83.40
32506;DHT22;18955;51.224;8.482;2023-05-21T10:26:29;14.40;83.50
32506;DHT22;18955;51.224;8.482;2023-05-21T10:28:56;14.50;83.80
32506;DHT22;18955;51.224;8.482;2023-05-21T10:31:25;14.50;83.70
32506;DHT22;18955;51.224;8.482;2023-05-21T10:33:53;14.50;83.80
32506;DHT22;18955;51.224;8.482;2023-05-21T10:36:23;14.60;83.60
32506;DHT22;18955;51.224;8.482;2023-05-21T10:38:49;14.60;83.60
32506;DHT22;18955;51.224;8.482;2023-05-21T10:41:18;14.70;83.70
32506;DHT22;18955;51.224;8.482;2023-05-21T10:43:53;14.70;83.60
32506;DHT22;18955;51.224;8.482;2023-05-21T10:59:50;14.90;83.90
32506;DHT22;18955;51.224;8.482;2023-05-21T11:02:16;14.90;85.60
32506;DHT22;18955;51.224;8.482;2023-05-21T11:04:44;15.00;83.90
32506;DHT22;18955;51.224;8.482;2023-05-21T11:07:17;15.00;84.00
32506;DHT22;18955;51.224;8.482;2023-05-21T11:09:49;15.00;84.00
32506;DHT22;18955;51.224;8.482;2023-05-21T11:12:16;15.00;84.00
32506;DHT22;18955;51.224;8.482;2023-05-21T11:14:55;15.10;84.00
32506;DHT22;18955;51.224;8.482;2023-05-21T11:17:40;15.20;84.00
32506;DHT22;18955;51.224;8.482;2023-05-21T11:20:11;15.20;83.90
32506;DHT22;18955;51.224;8.482;2023-05-21T11:22:38;15.20;83.90
32506;DHT22;18955;51.224;8.482;2023-05-21T11:25:05;15.30;84.00
32506;DHT22;18955;51.224;8.482;2023-05-21T11:27:40;15.30;83.80
32506;DHT22;18955;51.224;8.482;2023-05-21T11:30:14;15.30;83.80
32506;DHT22;18955;51.224;8.482;2023-05-21T11:35:56;15.40;83.70
32506;DHT22;18955;51.224;8.482;2023-05-21T11:38:27;15.40;83.80
32506;DHT22;18955;51.224;8.482;2023-05-21T11:40:54;15.50;83.80
32506;DHT22;18955;51.224;8.482;2023-05-21T11:43:20;15.50;83.90
32506;DHT22;18955;51.224;8.482;2023-05-21T11:45:47;15.60;83.90
32506;DHT22;18955;51.224;8.482;2023-05-21T11:48:13;15.60;83.90
32506;DHT22;18955;51.224;8.482;2023-05-21T11:50:40;15.60;83.80
32506;DHT22;18955;51.224;8.482;2023-05-21T11:53:07;15.70;83.90
32506;DHT22;18955;51.224;8.482;2023-05-21T11:55:36;15.70;83.90
32506;DHT22;18955;51.224;8.482;2023-05-21T11:58:03;15.70;84.00
32506;DHT22;18955;51.224;8.482;2023-05-21T12:00:30;15.80;84.00
32506;DHT22;18955;51.224;8.482;2023-05-21T12:03:03;15.80;84.00
32506;DHT22;18955;51.224;8.482;2023-05-21T12:05:30;15.80;83.90
32506;DHT22;18955;51.224;8.482;2023-05-21T12:07:56;15.90;85.10
32506;DHT22;18955;51.224;8.482;2023-05-21T12:10:23;15.90;84.00
32506;DHT22;18955;51.224;8.482;2023-05-21T12:12:49;15.90;84.10
32506;DHT22;18955;51.224;8.482;2023-05-21T12:15:16;16.00;84.10
32506;DHT22;18955;51.224;8.482;2023-05-21T12:17:42;16.00;84.10
32506;DHT22;18955;51.224;8.482;2023-05-21T12:20:14;16.00;84.00
32506;DHT22;18955;51.224;8.482;2023-05-21T12:22:41;16.10;84.10
32506;DHT22;18955;51.224;8.482;2023-05-21T12:25:08;16.10;84.10
32506;DHT22;18955;51.224;8.482;2023-05-21T12:27:35;16.10;84.00
32506;DHT22;18955;51.224;8.482;2023-05-21T12:30:02;16.10;84.10
32506;DHT22;18955;51.224;8.482;2023-05-21T12:32:28;16.20;84.20
32506;DHT22;18955;51.224;8.482;2023-05-21T12:34:55;16.20;84.60
32506;DHT22;18955;51.224;8.482;2023-05-21T12:37:27;16.30;84.10
32506;DHT22;18955;51.224;8.482;2023-05-21T12:39:58;16.30;84.10
32506;DHT22;18955;51.224;8.482;2023-05-21T12:42:26;16.30;84.10
32506;DHT22;18955;51.224;8.482;2023-05-21T12:44:53;16.40;84.20
32506;DHT22;18955;51.224;8.482;2023-05-21T12:47:22;16.40;84.20
32506;DHT22;18955;51.224;8.482;2023-05-21T12:49:52;16.40;84.10
32506;DHT22;18955;51.224;8.482;2023-05-21T12:52:20;16.40;84.20
32506;DHT22;18955;51.224;8.482;2023-05-21T12:54:52;16.50;84.20
32506;DHT22;18955;51.224;8.482;2023-05-21T12:57:21;16.50;84.30
32506;DHT22;18955;51.224;8.482;2023-05-21T12:59:56;16.50;84.70
32506;DHT22;18955;51.224;8.482;2023-05-21T13:05:38;16.60;84.00
32506;DHT22;18955;51.224;8.482;2023-05-21T13:07:43;16.60;84.20
32506;DHT22;18955;51.224;8.482;2023-05-21T13:10:12;16.70;84.30
32506;DHT22;18955;51.224;8.482;2023-05-21T13:12:38;16.70;84.30
32506;DHT22;18955;51.224;8.482;2023-05-21T13:15:05;16.80;84.30
32506;DHT22;18955;51.224;8.482;2023-05-21T13:17:34;16.80;84.40
32506;DHT22;18955;51.224;8.482;2023-05-21T13:20:12;16.80;84.30
32506;DHT22;18955;51.224;8.482;2023-05-21T13:22:43;16.80;84.20
32506;DHT22;18955;51.224;8.482;2023-05-21T13:25:19;16.90;84.10
32506;DHT22;18955;51.224;8.482;2023-05-21T13:27:47;16.90;84.30
32506;DHT22;18955;51.224;8.482;2023-05-21T13:30:14;16.90;84.30
32506;DHT22;18955;51.224;8.482;2023-05-21T13:32:41;17.00;84.30
32506;DHT22;18955;51.224;8.482;2023-05-21T13:35:07;17.00;84.40
32506;DHT22;18955;51.224;8.482;2023-05-21T13:37:35;17.00;84.40
32506;DHT22;18955;51.224;8.482;2023-05-21T13:40:09;17.10;85.00
32506;DHT22;18955;51.224;8.482;2023-05-21T13:42:46;17.10;84.30
32506;DHT22;18955;51.224;8.482;2023-05-21T13:45:14;17.10;84.20
32506;DHT22;18955;51.224;8.482;2023-05-21T13:47:41;17.20;84.40
32506;DHT22;18955;51.224;8.482;2023-05-21T13:50:08;17.20;84.40
32506;DHT22;18955;51.224;8.482;2023-05-21T13:52:35;17.30;84.30
32506;DHT22;18955;51.224;8.482;2023-05-21T13:55:02;17.30;84.40
32506;DHT22;18955;51.224;8.482;2023-05-21T13:57:28;17.30;84.60
32506;DHT22;18955;51.224;8.482;2023-05-21T13:59:56;17.30;84.60
32506;DHT22;18955;51.224;8.482;2023-05-21T14:02:22;17.30;84.50
32506;DHT22;18955;51.224;8.482;2023-05-21T14:04:49;17.40;84.60
32506;DHT22;18955;51.224;8.482;2023-05-21T14:07:15;17.50;84.40
32506;DHT22;18955;51.224;8.482;2023-05-21T14:09:41;17.50;84.40
32506;DHT22;18955;51.224;8.482;2023-05-21T14:12:08;17.60;84.40
32506;DHT22;18955;51.224;8.482;2023-05-21T14:14:34;17.60;84.30
32506;DHT22;18955;51.224;8.482;2023-05-21T14:17:01;17.60;84.40
32506;DHT22;18955;51.224;8.482;2023-05-21T14:19:27;17.60;84.70
32506;DHT22;18955;51.224;8.482;2023-05-21T14:21:53;17.60;84.80
32506;DHT22;18955;51.224;8.482;2023-05-21T14:24:19;17.60;84.60
32506;DHT22;18955;51.224;8.482;2023-05-21T14:26:46;17.70;84.60
32506;DHT22;18955;51.224;8.482;2023-05-21T14:29:12;17.80;84.40
32506;DHT22;18955;51.224;8.482;2023-05-21T14:31:39;17.80;84.60
32506;DHT22;18955;51.224;8.482;2023-05-21T14:34:05;17.80;84.60
32506;DHT22;18955;51.224;8.482;2023-05-21T14:36:34;17.90;84.70
32506;DHT22;18955;51.224;8.482;2023-05-21T14:39:01;17.90;84.40
32506;DHT22;18955;51.224;8.482;2023-05-21T14:41:28;18.00;84.60
32506;DHT22;18955;51.224;8.482;2023-05-21T14:43:55;18.00;84.50
32506;DHT22;18955;51.224;8.482;2023-05-21T14:46:21;18.10;84.40
32506;DHT22;18955;51.224;8.482;2023-05-21T14:48:47;18.20;84.30
32506;DHT22;18955;51.224;8.482;2023-05-21T14:51:13;18.30;84.10
32506;DHT22;18955;51.224;8.482;2023-05-21T14:53:40;18.30;84.00
32506;DHT22;18955;51.224;8.482;2023-05-21T14:56:06;18.30;84.00
32506;DHT22;18955;51.224;8.482;2023-05-21T14:58:32;18.30;83.90
32506;DHT22;18955;51.224;8.482;2023-05-21T15:00:59;18.30;84.50
32506;DHT22;18955;51.224;8.482;2023-05-21T15:03:25;18.40;84.00
32506;DHT22;18955;51.224;8.482;2023-05-21T15:05:51;18.40;84.20
32506;DHT22;18955;51.224;8.482;2023-05-21T15:08:18;18.40;84.60
32506;DHT22;18955;51.224;8.482;2023-05-21T15:10:44;18.40;84.80
32506;DHT22;18955;51.224;8.482;2023-05-21T15:13:10;18.40;85.50
32506;DHT22;18955;51.224;8.482;2023-05-21T15:15:36;18.40;84.60
32506;DHT22;18955;51.224;8.482;2023-05-21T15:18:03;18.50;84.30
32506;DHT22;18955;51.224;8.482;2023-05-21T15:20:29;18.50;84.30
32506;DHT22;18955;51.224;8.482;2023-05-21T15:22:55;18.60;84.10
32506;DHT22;18955;51.224;8.482;2023-05-21T15:25:23;18.60;83.80
32506;DHT22;18955;51.224;8.482;2023-05-21T15:27:49;18.70;83.80
32506;DHT22;18955;51.224;8.482;2023-05-21T15:30:16;18.70;83.70
32506;DHT22;18955;51.224;8.482;2023-05-21T15:32:42;18.70;83.90
32506;DHT22;18955;51.224;8.482;2023-05-21T15:35:08;18.70;83.80
32506;DHT22;18955;51.224;8.482;2023-05-21T15:37:34;18.80;84.10
32506;DHT22;18955;51.224;8.482;2023-05-21T15:40:01;18.80;84.00
32506;DHT22;18955;51.224;8.482;2023-05-21T15:42:27;18.80;84.70
32506;DHT22;18955;51.224;8.482;2023-05-21T15:44:56;18.80;84.30
32506;DHT22;18955;51.224;8.482;2023-05-21T15:47:22;18.90;84.70
32506;DHT22;18955;51.224;8.482;2023-05-21T15:49:48;18.90;84.50
32506;DHT22;18955;51.224;8.482;2023-05-21T15:52:15;18.90;84.60
32506;DHT22;18955;51.224;8.482;2023-05-21T15:54:41;18.90;85.00
32506;DHT22;18955;51.224;8.482;2023-05-21T15:57:07;18.90;84.40
32506;DHT22;18955;51.224;8.482;2023-05-21T15:59:34;19.00;84.70